createdAt,value
2023-04-10T00:01:46.694Z,8.32
2023-04-10T00:06:49.142Z,8.30
2023-04-10T00:11:50.734Z,8.37
2023-04-10T00:16:52.437Z,8.24
2023-04-10T00:21:54.185Z,8.11
2023-04-10T00:26:57.469Z,7.98
2023-04-10T00:31:59.202Z,7.98
2023-04-10T00:37:01.210Z,7.91
2023-04-10T00:42:03.174Z,7.80
2023-04-10T00:47:05.463Z,7.79
2023-04-10T00:52:07.763Z,7.73
2023-04-10T00:57:09.461Z,7.67
2023-04-10T01:02:13.202Z,7.64
2023-04-10T01:07:38.934Z,7.52
2023-04-10T01:13:18.655Z,7.44
2023-04-10T01:18:28.806Z,7.29
2023-04-10T01:23:30.784Z,7.39
2023-04-10T01:29:02.135Z,7.41
2023-04-10T01:34:08.466Z,7.23
2023-04-10T01:39:10.410Z,7.24
2023-04-10T01:44:14.771Z,7.23
2023-04-10T01:49:17.285Z,7.14
2023-04-10T01:54:19.170Z,7.10
2023-04-10T01:59:21.512Z,7.03
2023-04-10T02:04:23.288Z,6.99
2023-04-10T02:09:34.035Z,6.88
2023-04-10T02:14:44.210Z,6.82
2023-04-10T02:19:47.178Z,6.76
2023-04-10T02:24:49.406Z,6.67
2023-04-10T02:29:51.551Z,6.66
2023-04-10T02:34:53.656Z,6.68
2023-04-10T02:39:55.505Z,6.64
2023-04-10T02:44:59.508Z,6.65
2023-04-10T02:50:04.256Z,6.62
2023-04-10T02:55:11.429Z,6.61
2023-04-10T03:00:15.075Z,6.63
2023-04-10T03:05:39.468Z,6.58
2023-04-10T03:10:44.542Z,6.68
2023-04-10T03:15:47.017Z,6.73
2023-04-10T03:20:48.924Z,6.66
2023-04-10T03:25:53.867Z,6.59
2023-04-10T03:30:58.730Z,6.67
2023-04-10T03:36:00.629Z,6.57
2023-04-10T03:41:02.390Z,6.67
2023-04-10T03:46:06.659Z,6.52
2023-04-10T03:51:14.423Z,6.38
2023-04-10T03:56:16.735Z,6.32
2023-04-10T04:01:20.549Z,6.43
2023-04-10T04:06:36.362Z,6.41
2023-04-10T04:11:58.827Z,6.39
2023-04-10T04:17:19.022Z,6.37
2023-04-10T04:22:49.598Z,6.42
2023-04-10T04:28:13.627Z,6.49
2023-04-10T04:33:15.316Z,6.57
2023-04-10T04:38:31.454Z,6.58
2023-04-10T04:43:42.507Z,6.64
2023-04-10T04:49:13.277Z,6.65
2023-04-10T04:54:41.032Z,6.73
2023-04-10T05:00:01.113Z,6.80
2023-04-10T05:05:21.268Z,6.83
2023-04-10T05:10:58.201Z,7.05
2023-04-10T05:16:25.581Z,7.11
2023-04-10T05:21:37.531Z,7.06
2023-04-10T05:27:17.480Z,7.15
2023-04-10T05:32:39.476Z,7.24
2023-04-10T05:37:58.936Z,7.36
2023-04-10T05:43:21.872Z,7.56
2023-04-10T05:48:46.576Z,7.72
2023-04-10T05:53:58.169Z,7.89
2023-04-10T05:59:21.907Z,8.02
2023-04-10T06:04:46.571Z,8.45
2023-04-10T06:09:49.035Z,8.37
2023-04-10T06:14:50.866Z,8.65
2023-04-10T06:19:56.824Z,8.51
2023-04-10T06:24:59.051Z,8.71
2023-04-10T06:30:00.997Z,8.90
2023-04-10T06:35:02.954Z,9.02
2023-04-10T06:40:07.073Z,9.09
2023-04-10T06:45:09.495Z,9.32
2023-04-10T06:50:11.134Z,9.48
2023-04-10T06:55:13.006Z,9.50
2023-04-10T07:00:15.001Z,9.73
2023-04-10T07:05:16.690Z,9.87
2023-04-10T07:10:18.292Z,10.05
2023-04-10T07:15:19.917Z,10.10
2023-04-10T07:20:21.548Z,10.14
2023-04-10T07:25:23.368Z,10.35
2023-04-10T07:30:25.038Z,10.51
2023-04-10T07:35:27.070Z,10.62
2023-04-10T07:40:28.745Z,10.81
2023-04-10T07:45:30.572Z,10.92
2023-04-10T07:50:32.256Z,11.05
2023-04-10T07:55:44.975Z,11.22
2023-04-10T08:00:46.560Z,11.48
2023-04-10T08:05:48.164Z,11.84
2023-04-10T08:10:49.831Z,11.88
2023-04-10T08:15:51.403Z,11.95
2023-04-10T08:20:53.025Z,12.00
2023-04-10T08:25:54.661Z,12.21
2023-04-10T08:30:56.341Z,12.18
2023-04-10T08:35:58.009Z,12.25
2023-04-10T08:40:59.745Z,12.31
2023-04-10T08:46:01.845Z,12.39
2023-04-10T08:51:06.105Z,12.51
2023-04-10T08:56:08.244Z,12.38
2023-04-10T09:01:13.516Z,12.44
2023-04-10T09:06:15.252Z,12.37
2023-04-10T09:11:16.876Z,12.46
2023-04-10T09:16:18.640Z,12.42
2023-04-10T09:21:21.429Z,12.46
2023-04-10T09:26:28.374Z,12.58
2023-04-10T09:31:31.863Z,12.71
2023-04-10T09:36:33.582Z,12.63
2023-04-10T09:41:35.365Z,12.78
2023-04-10T09:46:37.093Z,13.11
2023-04-10T09:51:39.529Z,13.07
2023-04-10T09:56:41.406Z,13.36
2023-04-10T10:01:43.789Z,13.30
2023-04-10T10:06:46.107Z,13.43
2023-04-10T10:11:48.677Z,13.15
2023-04-10T10:16:51.342Z,13.31
2023-04-10T10:21:53.554Z,13.77
2023-04-10T10:26:55.821Z,13.60
2023-04-10T10:32:00.329Z,13.51
2023-04-10T10:37:02.719Z,13.84
2023-04-10T10:42:32.975Z,13.69
2023-04-10T10:47:40.586Z,13.69
2023-04-10T10:52:47.057Z,13.74
2023-04-10T10:57:49.835Z,14.04
2023-04-10T11:03:10.627Z,13.91
2023-04-10T11:08:12.537Z,13.94
2023-04-10T11:13:18.285Z,14.05
2023-04-10T11:18:20.994Z,13.89
2023-04-10T11:23:22.575Z,13.86
2023-04-10T11:28:33.370Z,14.05
2023-04-10T11:33:34.992Z,14.22
2023-04-10T11:38:37.311Z,14.04
2023-04-10T11:43:39.232Z,14.13
2023-04-10T11:48:41.059Z,14.70
2023-04-10T11:53:43.016Z,14.37
2023-04-10T11:58:45.025Z,14.27
2023-04-10T12:03:46.755Z,14.50
2023-04-10T12:08:52.769Z,14.39
2023-04-10T12:13:56.529Z,14.47
2023-04-10T12:18:58.388Z,14.53
2023-04-10T12:24:00.204Z,14.76
2023-04-10T12:29:01.877Z,14.94
2023-04-10T12:34:05.423Z,14.92
2023-04-10T12:39:22.187Z,14.80
2023-04-10T12:44:23.759Z,15.12
2023-04-10T12:49:25.494Z,14.99
2023-04-10T12:54:35.162Z,15.33
2023-04-10T12:59:37.426Z,15.20
2023-04-10T13:04:39.158Z,15.11
2023-04-10T13:09:40.848Z,15.13
2023-04-10T13:14:42.445Z,15.30
2023-04-10T13:19:44.043Z,15.22
2023-04-10T13:24:45.980Z,15.25
2023-04-10T13:29:47.688Z,15.39
2023-04-10T13:34:49.366Z,15.46
2023-04-10T13:39:50.954Z,15.63
2023-04-10T13:44:52.640Z,15.27
2023-04-10T13:49:54.279Z,15.24
2023-04-10T13:54:56.076Z,15.29
2023-04-10T13:59:57.746Z,15.15
2023-04-10T14:04:59.395Z,15.26
2023-04-10T14:10:01.364Z,15.26
2023-04-10T14:15:03.062Z,15.26
2023-04-10T14:20:05.344Z,15.27
2023-04-10T14:25:13.102Z,15.29
2023-04-10T14:30:15.795Z,15.18
2023-04-10T14:35:17.535Z,15.29
2023-04-10T14:40:19.151Z,15.16
2023-04-10T14:45:20.800Z,15.14
2023-04-10T14:50:22.481Z,15.21
2023-04-10T14:55:25.116Z,15.24
2023-04-10T15:00:26.928Z,15.17
2023-04-10T15:05:28.707Z,15.04
2023-04-10T15:10:33.298Z,15.11
2023-04-10T15:15:34.917Z,14.94
2023-04-10T15:20:36.636Z,15.01
2023-04-10T15:25:38.317Z,15.02
2023-04-10T15:30:43.466Z,15.04
2023-04-10T15:35:48.478Z,15.04
2023-04-10T15:40:50.089Z,14.85
2023-04-10T15:45:51.784Z,14.76
2023-04-10T15:50:53.506Z,14.78
2023-04-10T15:55:55.128Z,14.79
2023-04-10T16:00:56.809Z,14.77
2023-04-10T16:05:58.619Z,14.75
2023-04-10T16:11:00.417Z,14.80
2023-04-10T16:16:02.758Z,14.71
2023-04-10T16:21:08.353Z,14.71
2023-04-10T16:26:10.089Z,14.66
2023-04-10T16:31:11.745Z,14.74
2023-04-10T16:36:13.406Z,14.79
2023-04-10T16:41:17.485Z,14.74
2023-04-10T16:46:20.549Z,14.73
2023-04-10T16:51:22.321Z,14.61
2023-04-10T16:56:23.933Z,14.59
2023-04-10T17:01:25.938Z,14.57
2023-04-10T17:06:27.803Z,14.54
2023-04-10T17:11:29.466Z,14.47
2023-04-10T17:16:31.185Z,14.45
2023-04-10T17:21:32.798Z,14.34
2023-04-10T17:26:34.461Z,14.33
2023-04-10T17:31:36.113Z,14.17
2023-04-10T17:36:37.816Z,14.13
2023-04-10T17:41:39.841Z,13.99
2023-04-10T17:46:41.505Z,13.95
2023-04-10T17:51:43.089Z,13.89
2023-04-10T17:56:44.727Z,13.81
2023-04-10T18:01:46.551Z,13.65
2023-04-10T18:06:48.279Z,13.62
2023-04-10T18:11:50.752Z,13.54
2023-04-10T18:16:52.545Z,13.52
2023-04-10T18:21:54.241Z,13.50
2023-04-10T18:26:56.600Z,13.40
2023-04-10T18:31:58.257Z,13.29
2023-04-10T18:37:00.141Z,13.17
2023-04-10T18:42:02.667Z,13.11
2023-04-10T18:47:05.266Z,13.02
2023-04-10T18:52:07.594Z,12.98
2023-04-10T18:57:09.307Z,12.97
2023-04-10T19:02:11.059Z,12.97
2023-04-10T19:07:12.767Z,12.84
2023-04-10T19:12:14.438Z,12.83
2023-04-10T19:17:16.229Z,12.74
2023-04-10T19:22:17.909Z,12.67
2023-04-10T19:27:19.539Z,12.68
2023-04-10T19:32:21.233Z,12.61
2023-04-10T19:37:22.838Z,12.56
2023-04-10T19:42:24.438Z,12.53
2023-04-10T19:47:26.206Z,12.50
2023-04-10T19:52:27.809Z,12.47
2023-04-10T19:57:29.431Z,12.48
2023-04-10T20:02:31.186Z,12.41
2023-04-10T20:07:33.326Z,12.40
2023-04-10T20:12:35.142Z,12.35
2023-04-10T20:17:38.447Z,12.33
2023-04-10T20:22:40.435Z,12.19
2023-04-10T20:27:42.068Z,12.24
2023-04-10T20:32:43.717Z,12.17
2023-04-10T20:37:45.297Z,12.10
2023-04-10T20:42:46.940Z,12.06
2023-04-10T20:47:48.599Z,12.07
2023-04-10T20:52:50.379Z,12.06
2023-04-10T20:57:53.179Z,12.02
2023-04-10T21:02:54.983Z,11.95
2023-04-10T21:07:56.928Z,11.77
2023-04-10T21:12:58.554Z,11.73
2023-04-10T21:18:00.368Z,11.74
2023-04-10T21:23:02.432Z,11.75
2023-04-10T21:28:04.093Z,11.75
2023-04-10T21:33:05.807Z,11.72
2023-04-10T21:38:07.488Z,11.66
2023-04-10T21:43:09.059Z,11.70
2023-04-10T21:48:10.700Z,11.69
2023-04-10T21:53:12.434Z,11.70
2023-04-10T21:58:14.053Z,11.69
2023-04-10T22:03:16.292Z,11.72
2023-04-10T22:08:20.020Z,11.69
2023-04-10T22:13:30.348Z,11.68
2023-04-10T22:18:32.825Z,11.63
2023-04-10T22:23:34.403Z,11.65
2023-04-10T22:28:36.005Z,11.63
2023-04-10T22:33:37.962Z,11.66
2023-04-10T22:38:39.602Z,11.65
2023-04-10T22:43:41.205Z,11.62
2023-04-10T22:48:43.432Z,11.69
2023-04-10T22:53:46.084Z,11.66
2023-04-10T22:58:47.676Z,11.68
2023-04-10T23:03:53.584Z,11.69
2023-04-10T23:08:55.674Z,11.70
2023-04-10T23:13:57.679Z,11.64
2023-04-10T23:18:59.328Z,11.68
2023-04-10T23:24:00.935Z,11.68
2023-04-10T23:29:02.633Z,11.68
2023-04-10T23:34:04.214Z,11.70
2023-04-10T23:39:05.796Z,11.68
2023-04-10T23:44:08.559Z,11.70
2023-04-10T23:49:10.160Z,11.76
2023-04-10T23:54:12.474Z,11.72
2023-04-10T23:59:16.891Z,11.71
